• Join FlightAware (Why Join?)
  • Login
  • US Flag 
04:19AM EST


 

Airport Tracker/Info


-or-


 

Live Flight TrackerFlight Track Log ✈ UCA3596 ✈ 14-Oct-2013 ✈ KBGM - KIAD

Flight Track Log - Related Links

Times and Time Zones

All times are in EDT time to prevent confusion due to time zone crossing. See the UCA3596 flight status page for this flight to view local times or setup timezone preferences in your user account.

Time Position Orientation Groundspeed Altitude Reporting Facility
EDT Latitude Longitude Course Direction KTS MPH feet Rate Location/Type
02:46PM 42.1433 -76.0008 211° Southwest 187 215 3,600  Level New York Center
02:47PM 42.1039 -76.0453 220° Southwest 187 215 5,000 1,320 Climbing New York Center
02:48PM 42.0606 -76.0867 215° Southwest 187 215 6,300 1,320 Climbing New York Center
02:49PM 42.0125 -76.1331 216° Southwest 192 221 7,700 1,260 Climbing New York Center
02:50PM 41.9692 -76.1742 215° Southwest 192 221 8,900 1,200 Climbing New York Center
02:51PM 41.8213 -76.1636 211° Southwest  Level Estimated
02:51PM 41.9319 -76.2100 216° Southwest 192 221 10,100  Level New York Center
02:52PM 41.8819 -76.2561 214° Southwest 192 221 11,500 1,320 Climbing New York Center
02:53PM 41.8386 -76.2969 215° Southwest 197 227 12,800 1,080 Climbing New York Center
02:54PM 41.7947 -76.3436 218° Southwest 202 232 13,700 960 Climbing New York Center
02:55PM 41.7533 -76.3817 214° Southwest 202 232 14,800 1,020 Climbing New York Center
02:56PM 41.7056 -76.4250 214° Southwest 202 232 15,800 600 Climbing New York Center
02:57PM 41.6486 -76.4811 216° Southwest 219 252 16,000 60 Climbing New York Center
02:58PM 41.5939 -76.5347 216° Southwest 243 280 16,000  Level New York Center
02:59PM 41.5331 -76.5906 214° Southwest 261 300 16,000  Level New York Center
03:00PM 41.4783 -76.6439 216° Southwest 267 307 16,000  Level New York Center
03:01PM 41.4125 -76.7075 216° Southwest 267 307 16,000  Level New York Center
03:02PM 41.3536 -76.7631 215° Southwest 267 307 16,000  Level New York Center
03:03PM 41.2833 -76.7900 196° South 267 307 16,000  Level New York Center
03:04PM 41.2097 -76.8056 189° South 267 307 16,000  Level New York Center
03:05PM 41.1342 -76.8181 187° South 267 307 16,000  Level New York Center
03:06PM 41.0603 -76.8333 189° South 277 319 16,000  Level New York Center
03:07PM 40.9844 -76.8486 189° South 277 319 16,000  Level New York Center
03:08PM 40.9108 -76.8614 187° South 277 319 16,000  Level New York Center
03:09PM 40.8456 -76.8747 189° South 277 319 16,000  Level New York Center
03:10PM 40.7614 -76.8919 189° South 277 319 16,000  Level New York Center
03:11PM 40.6978 -76.9136 194° South 277 319 16,000  Level New York Center
03:12PM 40.6153 -76.9389 193° South 277 319 16,000  Level New York Center
03:13PM 40.5494 -76.9603 194° South 277 319 16,000  Level New York Center
03:14PM 40.4689 -76.9858 194° South 277 319 16,000  Level New York Center
03:15PM 40.4011 -77.0044 192° South 277 319 16,000  Level New York Center
03:16PM 40.3206 -77.0325 195° South 277 319 16,000 -120 Level New York Center
03:18PM 40.1833 -77.0667 191° South 278 320 15,700 -600 Descending Potomac TRACON
03:19PM 40.1000 -77.1000 197° South 290 334 14,400 -1,320 Descending Potomac TRACON
03:20PM 40.0167 -77.1167 189° South 289 333 13,100 -1,200 Descending Potomac TRACON
03:21PM 39.9500 -77.1500 201° Southwest 280 322 12,100 -1,140 Descending Potomac TRACON
03:22PM 39.8667 -77.1833 197° South 279 321 10,900 -1,320 Descending Potomac TRACON
03:23PM 39.8167 -77.2167 207° Southwest 277 319 9,700 -960 Descending Potomac TRACON
03:24PM 39.7333 -77.2667 205° Southwest 266 306 9,000 -360 Descending Potomac TRACON
03:25PM 39.6667 -77.2667 180° South 257 296 9,000 -540 Level Potomac TRACON
03:26PM 39.6000 -77.2833 191° South 271 312 8,000 -1,020 Descending Potomac TRACON
03:27PM 39.5167 -77.3000 189° South 273 314 7,000 -1,020 Descending Potomac TRACON
03:28PM 39.4500 -77.3167 191° South 268 308 6,000 -1,020 Descending Potomac TRACON
03:29PM 39.3833 -77.3167 180° South 270 311 5,100 -1,020 Descending Potomac TRACON
03:30PM 39.3000 -77.3333 189° South 270 311 4,100 -600 Descending Potomac TRACON
03:31PM 39.2333 -77.3500 191° South 257 296 4,000 -240 Descending Potomac TRACON
03:32PM 39.1667 -77.3500 180° South 257 296 3,700 -540 Descending Potomac TRACON
03:33PM 39.1000 -77.3500 180° South 253 291 3,000 -420 Descending Potomac TRACON
03:34PM 39.0333 -77.3500 180° South 239 275 3,000  Level Potomac TRACON
03:35PM 38.9667 -77.3500 180° South 245 282 3,000  Level Potomac TRACON
03:36PM 38.9000 -77.3500 180° South 247 284 3,000 -360 Level Potomac TRACON
03:37PM 38.8333 -77.3667 191° South 213 245 2,300 -600 Descending Potomac TRACON
03:38PM 38.8167 -77.4000 237° Southwest 188 216 1,900 -360 Descending Potomac TRACON
03:39PM 38.8667 -77.4333 333° Northwest 154 177 1,600 -540 Descending Potomac TRACON
03:40PM 38.9000 -77.4333 360° North 115 132 900 -720 Descending Potomac TRACON